This is the latest recevied weather packets stored in our database for station/object K5OBH. If no packets are shown the sender has not sent any weather packets the latest 10 day(s).
| Time | Temp. | Humidity | Pressure | Rain* | Wind** | Luminosity | Snow |
|---|---|---|---|---|---|---|---|
| 1777487654 | 17.22° C | 60% | 1017.6 hPa | 0 mm | - | 625 W/m² | - |
| 1777487351 | 17.78° C | 59% | 1018 hPa | 0 mm | - | 655 W/m² | - |
| 1777487049 | 17.78° C | 59% | 1017.8 hPa | 0 mm | - | 690 W/m² | - |
| 1777486744 | 17.22° C | 59% | 1017.8 hPa | 0 mm | - | 564 W/m² | - |
| 1777486442 | 17.22° C | 61% | 1017.8 hPa | 0 mm | - | 608 W/m² | - |
| 1777486139 | 17.22° C | 60% | 1018 hPa | 0 mm | - | 555 W/m² | - |
| 1777485836 | 16.67° C | 61% | 1018.3 hPa | 0 mm | - | 485 W/m² | - |
| 1777485532 | 16.67° C | 61% | 1018.1 hPa | 0 mm | - | 527 W/m² | - |
| 1777485228 | 17.22° C | 61% | 1018.2 hPa | 0 mm | - | 378 W/m² | - |
| 1777484924 | 16.67° C | 61% | 1018.1 hPa | 0 mm | - | 557 W/m² | - |
| 1777484622 | 16.11° C | 63% | 1018.2 hPa | 0 mm | - | 666 W/m² | - |
| 1777484318 | 16.67° C | 63% | 1018.4 hPa | 0 mm | - | 399 W/m² | - |
| 1777484014 | 17.22° C | 62% | 1018.4 hPa | 0 mm | - | 363 W/m² | - |
| 1777483711 | 17.22° C | 65% | 1018.4 hPa | 0 mm | - | 549 W/m² | - |
| 1777483407 | 16.11° C | 64% | 1018.6 hPa | 0 mm | - | 848 W/m² | - |
| 1777483102 | 16.11° C | 65% | 1018.7 hPa | 0 mm | - | 565 W/m² | - |
| 1777482800 | 16.11° C | 65% | 1018.6 hPa | 0 mm | - | 617 W/m² | - |
| 1777482495 | 15.56° C | 66% | 1018.6 hPa | 0 mm | - | 626 W/m² | - |
| 1777482193 | 15.56° C | 66% | 1018.8 hPa | 0 mm | - | 334 W/m² | - |
| 1777481890 | 15.56° C | 66% | 1018.7 hPa | 0 mm | - | 281 W/m² | - |
| 1777481588 | 15° C | 66% | 1018.9 hPa | 0 mm | - | 597 W/m² | - |
| 1777481284 | 15° C | 67% | 1018.8 hPa | 0 mm | - | 298 W/m² | - |
| 1777480981 | 15° C | 68% | 1018.8 hPa | 0 mm | - | 254 W/m² | - |
| 1777480677 | 15° C | 68% | 1018.9 hPa | 0 mm | - | 249 W/m² | - |
| 1777480374 | 14.44° C | 69% | 1018.9 hPa | 0 mm | - | 372 W/m² | - |
* Rain latest hour (hover to see other rain measurements)
** Current wind speed in m/s (hover to see current wind gust speed)